sensor_id;sensor_type;location;lat;lon;timestamp;P1;durP1;ratioP1;P2;durP2;ratioP2
64738;SDS011;51175;51.186;0.276;2022-08-03T00:00:16;28.63;;;21.98;;
64738;SDS011;51175;51.186;0.276;2022-08-03T00:00:46;29.20;;;20.92;;
64738;SDS011;51175;51.186;0.276;2022-08-03T00:01:17;29.98;;;20.73;;
64738;SDS011;51175;51.186;0.276;2022-08-03T00:01:47;25.95;;;20.50;;
64738;SDS011;51175;51.186;0.276;2022-08-03T00:02:18;28.23;;;21.50;;
64738;SDS011;51175;51.186;0.276;2022-08-03T00:02:48;25.98;;;21.45;;
64738;SDS011;51175;51.186;0.276;2022-08-03T00:03:19;28.52;;;20.63;;
64738;SDS011;51175;51.186;0.276;2022-08-03T00:03:49;27.27;;;20.30;;
64738;SDS011;51175;51.186;0.276;2022-08-03T00:04:19;26.58;;;19.70;;
64738;SDS011;51175;51.186;0.276;2022-08-03T00:04:50;28.08;;;20.88;;
64738;SDS011;51175;51.186;0.276;2022-08-03T00:05:20;27.80;;;20.95;;
64738;SDS011;51175;51.186;0.276;2022-08-03T00:05:51;25.38;;;20.80;;
64738;SDS011;51175;51.186;0.276;2022-08-03T00:06:21;25.25;;;18.92;;
64738;SDS011;51175;51.186;0.276;2022-08-03T00:06:51;26.70;;;19.83;;
64738;SDS011;51175;51.186;0.276;2022-08-03T00:07:22;27.42;;;21.08;;
64738;SDS011;51175;51.186;0.276;2022-08-03T00:07:52;25.67;;;20.75;;
64738;SDS011;51175;51.186;0.276;2022-08-03T00:08:23;27.40;;;20.83;;
64738;SDS011;51175;51.186;0.276;2022-08-03T00:08:53;24.30;;;19.23;;
64738;SDS011;51175;51.186;0.276;2022-08-03T00:09:23;26.52;;;20.73;;
64738;SDS011;51175;51.186;0.276;2022-08-03T00:09:54;27.88;;;20.75;;
64738;SDS011;51175;51.186;0.276;2022-08-03T00:10:24;26.50;;;19.38;;
64738;SDS011;51175;51.186;0.276;2022-08-03T00:10:55;28.75;;;20.60;;
64738;SDS011;51175;51.186;0.276;2022-08-03T00:11:26;25.17;;;19.42;;
64738;SDS011;51175;51.186;0.276;2022-08-03T00:11:56;27.73;;;19.80;;
64738;SDS011;51175;51.186;0.276;2022-08-03T00:12:27;24.67;;;19.13;;
64738;SDS011;51175;51.186;0.276;2022-08-03T00:12:57;25.05;;;20.17;;
64738;SDS011;51175;51.186;0.276;2022-08-03T00:13:27;25.60;;;19.10;;
64738;SDS011;51175;51.186;0.276;2022-08-03T00:13:58;24.77;;;18.40;;
64738;SDS011;51175;51.186;0.276;2022-08-03T00:14:28;26.70;;;19.38;;
64738;SDS011;51175;51.186;0.276;2022-08-03T00:14:59;25.52;;;19.15;;
64738;SDS011;51175;51.186;0.276;2022-08-03T00:15:29;24.98;;;18.50;;
64738;SDS011;51175;51.186;0.276;2022-08-03T00:16:00;23.48;;;18.65;;
64738;SDS011;51175;51.186;0.276;2022-08-03T00:16:30;25.58;;;19.30;;
64738;SDS011;51175;51.186;0.276;2022-08-03T00:17:01;24.58;;;18.73;;
64738;SDS011;51175;51.186;0.276;2022-08-03T00:17:32;23.95;;;18.25;;
64738;SDS011;51175;51.186;0.276;2022-08-03T00:18:02;24.73;;;17.60;;
64738;SDS011;51175;51.186;0.276;2022-08-03T00:18:33;23.85;;;19.17;;
64738;SDS011;51175;51.186;0.276;2022-08-03T00:19:03;23.77;;;18.38;;
64738;SDS011;51175;51.186;0.276;2022-08-03T00:19:34;25.98;;;18.60;;
64738;SDS011;51175;51.186;0.276;2022-08-03T00:20:04;22.27;;;17.50;;
64738;SDS011;51175;51.186;0.276;2022-08-03T00:20:35;27.23;;;19.63;;
64738;SDS011;51175;51.186;0.276;2022-08-03T00:21:05;23.80;;;17.45;;
64738;SDS011;51175;51.186;0.276;2022-08-03T00:21:36;22.60;;;17.77;;
64738;SDS011;51175;51.186;0.276;2022-08-03T00:22:06;23.50;;;17.05;;
64738;SDS011;51175;51.186;0.276;2022-08-03T00:22:37;28.95;;;19.23;;
64738;SDS011;51175;51.186;0.276;2022-08-03T00:23:07;22.98;;;17.48;;
64738;SDS011;51175;51.186;0.276;2022-08-03T00:23:38;25.80;;;19.00;;
64738;SDS011;51175;51.186;0.276;2022-08-03T00:24:08;23.90;;;18.08;;
64738;SDS011;51175;51.186;0.276;2022-08-03T00:24:38;22.35;;;18.30;;
64738;SDS011;51175;51.186;0.276;2022-08-03T00:25:09;22.48;;;17.02;;
64738;SDS011;51175;51.186;0.276;2022-08-03T00:25:39;23.85;;;16.98;;
64738;SDS011;51175;51.186;0.276;2022-08-03T00:26:10;22.65;;;18.02;;
64738;SDS011;51175;51.186;0.276;2022-08-03T00:26:40;24.80;;;18.17;;
64738;SDS011;51175;51.186;0.276;2022-08-03T00:27:10;26.65;;;18.88;;
64738;SDS011;51175;51.186;0.276;2022-08-03T00:27:41;26.88;;;17.42;;
64738;SDS011;51175;51.186;0.276;2022-08-03T00:28:11;22.45;;;16.33;;
64738;SDS011;51175;51.186;0.276;2022-08-03T00:28:42;22.75;;;16.95;;
64738;SDS011;51175;51.186;0.276;2022-08-03T00:29:12;23.23;;;17.77;;
64738;SDS011;51175;51.186;0.276;2022-08-03T00:29:42;20.90;;;16.35;;
64738;SDS011;51175;51.186;0.276;2022-08-03T00:30:13;21.63;;;16.42;;
64738;SDS011;51175;51.186;0.276;2022-08-03T00:30:43;20.33;;;15.90;;
64738;SDS011;51175;51.186;0.276;2022-08-03T00:31:14;24.83;;;17.50;;
64738;SDS011;51175;51.186;0.276;2022-08-03T00:31:44;23.00;;;16.60;;
64738;SDS011;51175;51.186;0.276;2022-08-03T00:32:15;23.88;;;17.27;;
64738;SDS011;51175;51.186;0.276;2022-08-03T00:32:45;19.05;;;15.73;;
64738;SDS011;51175;51.186;0.276;2022-08-03T00:33:15;19.90;;;16.40;;
64738;SDS011;51175;51.186;0.276;2022-08-03T00:33:46;22.17;;;16.63;;
64738;SDS011;51175;51.186;0.276;2022-08-03T00:34:16;27.40;;;17.80;;
64738;SDS011;51175;51.186;0.276;2022-08-03T00:34:47;24.33;;;17.38;;
64738;SDS011;51175;51.186;0.276;2022-08-03T00:35:17;19.65;;;15.35;;
64738;SDS011;51175;51.186;0.276;2022-08-03T00:35:47;21.45;;;17.17;;
64738;SDS011;51175;51.186;0.276;2022-08-03T00:36:18;19.58;;;16.23;;
64738;SDS011;51175;51.186;0.276;2022-08-03T00:36:48;21.10;;;16.10;;
64738;SDS011;51175;51.186;0.276;2022-08-03T00:37:19;22.65;;;17.23;;
64738;SDS011;51175;51.186;0.276;2022-08-03T00:37:49;20.15;;;15.80;;
64738;SDS011;51175;51.186;0.276;2022-08-03T00:38:20;21.50;;;16.33;;
64738;SDS011;51175;51.186;0.276;2022-08-03T00:38:50;23.42;;;16.75;;
64738;SDS011;51175;51.186;0.276;2022-08-03T00:39:21;20.38;;;15.25;;
64738;SDS011;51175;51.186;0.276;2022-08-03T00:39:51;20.02;;;16.27;;
64738;SDS011;51175;51.186;0.276;2022-08-03T00:40:22;20.75;;;15.88;;
64738;SDS011;51175;51.186;0.276;2022-08-03T00:40:52;21.25;;;15.63;;
64738;SDS011;51175;51.186;0.276;2022-08-03T00:41:23;21.05;;;15.43;;
64738;SDS011;51175;51.186;0.276;2022-08-03T00:41:53;24.00;;;16.05;;
64738;SDS011;51175;51.186;0.276;2022-08-03T00:42:24;23.50;;;15.90;;
64738;SDS011;51175;51.186;0.276;2022-08-03T00:42:55;17.80;;;14.20;;
64738;SDS011;51175;51.186;0.276;2022-08-03T00:43:27;21.05;;;15.52;;
64738;SDS011;51175;51.186;0.276;2022-08-03T00:43:58;18.25;;;14.68;;
64738;SDS011;51175;51.186;0.276;2022-08-03T00:44:28;21.50;;;15.65;;
64738;SDS011;51175;51.186;0.276;2022-08-03T00:44:59;20.90;;;14.95;;
64738;SDS011;51175;51.186;0.276;2022-08-03T00:45:30;18.02;;;14.90;;
64738;SDS011;51175;51.186;0.276;2022-08-03T00:46:08;22.27;;;15.63;;
64738;SDS011;51175;51.186;0.276;2022-08-03T00:46:38;20.00;;;14.80;;
64738;SDS011;51175;51.186;0.276;2022-08-03T00:47:09;19.75;;;14.38;;
64738;SDS011;51175;51.186;0.276;2022-08-03T00:47:40;19.88;;;13.45;;
64738;SDS011;51175;51.186;0.276;2022-08-03T00:48:11;20.10;;;15.32;;
64738;SDS011;51175;51.186;0.276;2022-08-03T00:48:41;19.92;;;14.77;;
64738;SDS011;51175;51.186;0.276;2022-08-03T00:49:12;19.38;;;14.10;;
64738;SDS011;51175;51.186;0.276;2022-08-03T00:49:42;18.55;;;14.05;;
64738;SDS011;51175;51.186;0.276;2022-08-03T00:50:13;20.85;;;15.52;;
64738;SDS011;51175;51.186;0.276;2022-08-03T00:50:44;21.92;;;14.88;;
64738;SDS011;51175;51.186;0.276;2022-08-03T00:51:16;20.55;;;15.55;;
64738;SDS011;51175;51.186;0.276;2022-08-03T00:51:48;18.77;;;13.30;;
64738;SDS011;51175;51.186;0.276;2022-08-03T00:52:18;20.40;;;15.25;;
64738;SDS011;51175;51.186;0.276;2022-08-03T00:52:49;20.50;;;14.63;;
64738;SDS011;51175;51.186;0.276;2022-08-03T00:53:22;22.15;;;14.60;;
64738;SDS011;51175;51.186;0.276;2022-08-03T00:53:53;22.13;;;14.55;;
64738;SDS011;51175;51.186;0.276;2022-08-03T00:54:23;19.83;;;13.82;;
64738;SDS011;51175;51.186;0.276;2022-08-03T00:54:54;16.52;;;13.63;;
64738;SDS011;51175;51.186;0.276;2022-08-03T00:55:25;19.42;;;14.45;;
64738;SDS011;51175;51.186;0.276;2022-08-03T00:55:57;19.08;;;14.88;;
64738;SDS011;51175;51.186;0.276;2022-08-03T00:56:27;20.00;;;14.35;;
64738;SDS011;51175;51.186;0.276;2022-08-03T00:56:58;18.70;;;13.60;;
64738;SDS011;51175;51.186;0.276;2022-08-03T00:57:29;19.27;;;13.75;;
64738;SDS011;51175;51.186;0.276;2022-08-03T00:58:01;20.48;;;13.80;;
64738;SDS011;51175;51.186;0.276;2022-08-03T00:58:35;18.63;;;13.65;;
64738;SDS011;51175;51.186;0.276;2022-08-03T00:59:06;16.58;;;13.23;;
64738;SDS011;51175;51.186;0.276;2022-08-03T00:59:39;21.92;;;14.38;;
64738;SDS011;51175;51.186;0.276;2022-08-03T01:00:10;16.48;;;13.18;;
64738;SDS011;51175;51.186;0.276;2022-08-03T01:00:42;18.75;;;14.18;;
64738;SDS011;51175;51.186;0.276;2022-08-03T01:01:13;15.50;;;11.98;;
64738;SDS011;51175;51.186;0.276;2022-08-03T01:01:43;17.88;;;13.00;;
64738;SDS011;51175;51.186;0.276;2022-08-03T01:02:14;19.38;;;13.98;;
64738;SDS011;51175;51.186;0.276;2022-08-03T01:02:44;16.48;;;12.57;;
64738;SDS011;51175;51.186;0.276;2022-08-03T01:03:15;17.50;;;13.80;;
64738;SDS011;51175;51.186;0.276;2022-08-03T01:03:45;15.32;;;12.57;;
64738;SDS011;51175;51.186;0.276;2022-08-03T01:04:16;18.38;;;13.38;;
64738;SDS011;51175;51.186;0.276;2022-08-03T01:04:46;18.88;;;12.88;;
64738;SDS011;51175;51.186;0.276;2022-08-03T01:05:17;17.85;;;12.52;;
64738;SDS011;51175;51.186;0.276;2022-08-03T01:05:52;18.75;;;13.00;;
64738;SDS011;51175;51.186;0.276;2022-08-03T01:07:08;19.63;;;12.70;;
64738;SDS011;51175;51.186;0.276;2022-08-03T01:08:40;19.55;;;12.70;;
64738;SDS011;51175;51.186;0.276;2022-08-03T01:10:01;16.00;;;11.93;;
64738;SDS011;51175;51.186;0.276;2022-08-03T01:11:05;16.48;;;12.77;;
64738;SDS011;51175;51.186;0.276;2022-08-03T01:11:59;17.88;;;12.43;;
64738;SDS011;51175;51.186;0.276;2022-08-03T01:12:41;16.70;;;11.63;;
64738;SDS011;51175;51.186;0.276;2022-08-03T01:14:20;16.00;;;11.50;;
64738;SDS011;51175;51.186;0.276;2022-08-03T01:15:15;18.30;;;12.00;;
64738;SDS011;51175;51.186;0.276;2022-08-03T01:15:59;16.83;;;10.80;;
64738;SDS011;51175;51.186;0.276;2022-08-03T01:16:43;16.20;;;12.05;;
64738;SDS011;51175;51.186;0.276;2022-08-03T01:17:27;17.42;;;11.63;;
64738;SDS011;51175;51.186;0.276;2022-08-03T01:20:06;15.07;;;11.18;;
64738;SDS011;51175;51.186;0.276;2022-08-03T01:20:43;17.27;;;11.57;;
64738;SDS011;51175;51.186;0.276;2022-08-03T01:21:25;17.63;;;11.30;;
64738;SDS011;51175;51.186;0.276;2022-08-03T01:27:13;17.50;;;11.55;;
64738;SDS011;51175;51.186;0.276;2022-08-03T01:30:21;14.00;;;10.57;;
64738;SDS011;51175;51.186;0.276;2022-08-03T01:30:58;16.02;;;10.45;;
64738;SDS011;51175;51.186;0.276;2022-08-03T01:31:36;15.65;;;11.20;;
64738;SDS011;51175;51.186;0.276;2022-08-03T01:32:13;14.27;;;10.70;;
64738;SDS011;51175;51.186;0.276;2022-08-03T01:32:50;15.20;;;10.65;;
64738;SDS011;51175;51.186;0.276;2022-08-03T01:33:30;16.17;;;11.32;;
64738;SDS011;51175;51.186;0.276;2022-08-03T01:34:06;11.25;;;9.77;;
64738;SDS011;51175;51.186;0.276;2022-08-03T01:34:40;16.90;;;10.15;;
64738;SDS011;51175;51.186;0.276;2022-08-03T01:35:21;14.35;;;9.88;;
64738;SDS011;51175;51.186;0.276;2022-08-03T01:36:00;15.45;;;10.20;;
64738;SDS011;51175;51.186;0.276;2022-08-03T01:36:35;16.95;;;10.48;;
64738;SDS011;51175;51.186;0.276;2022-08-03T01:37:09;13.15;;;9.40;;
64738;SDS011;51175;51.186;0.276;2022-08-03T01:37:44;14.98;;;10.23;;
64738;SDS011;51175;51.186;0.276;2022-08-03T01:38:23;14.60;;;10.63;;
64738;SDS011;51175;51.186;0.276;2022-08-03T01:38:58;14.05;;;9.85;;
64738;SDS011;51175;51.186;0.276;2022-08-03T01:39:31;15.20;;;9.90;;
64738;SDS011;51175;51.186;0.276;2022-08-03T01:40:02;12.40;;;9.20;;
64738;SDS011;51175;51.186;0.276;2022-08-03T01:40:35;15.13;;;10.30;;
64738;SDS011;51175;51.186;0.276;2022-08-03T01:41:17;13.82;;;10.23;;
64738;SDS011;51175;51.186;0.276;2022-08-03T01:41:55;15.65;;;9.82;;
64738;SDS011;51175;51.186;0.276;2022-08-03T01:42:29;15.95;;;9.43;;
64738;SDS011;51175;51.186;0.276;2022-08-03T01:43:02;13.55;;;9.18;;
64738;SDS011;51175;51.186;0.276;2022-08-03T01:43:35;17.67;;;10.35;;
64738;SDS011;51175;51.186;0.276;2022-08-03T01:44:08;15.68;;;9.52;;
64738;SDS011;51175;51.186;0.276;2022-08-03T01:44:40;11.60;;;9.32;;
64738;SDS011;51175;51.186;0.276;2022-08-03T01:45:13;13.38;;;10.43;;
64738;SDS011;51175;51.186;0.276;2022-08-03T01:45:46;11.05;;;8.48;;
64738;SDS011;51175;51.186;0.276;2022-08-03T01:46:17;12.07;;;8.07;;
64738;SDS011;51175;51.186;0.276;2022-08-03T01:46:49;16.35;;;9.73;;
64738;SDS011;51175;51.186;0.276;2022-08-03T01:47:21;12.05;;;9.70;;
64738;SDS011;51175;51.186;0.276;2022-08-03T01:47:54;13.25;;;8.95;;
64738;SDS011;51175;51.186;0.276;2022-08-03T01:48:25;12.02;;;9.07;;
64738;SDS011;51175;51.186;0.276;2022-08-03T01:48:57;11.30;;;8.18;;
64738;SDS011;51175;51.186;0.276;2022-08-03T01:49:29;12.32;;;9.13;;
64738;SDS011;51175;51.186;0.276;2022-08-03T01:50:02;12.95;;;8.45;;
64738;SDS011;51175;51.186;0.276;2022-08-03T01:50:34;15.55;;;10.05;;
64738;SDS011;51175;51.186;0.276;2022-08-03T01:51:05;10.93;;;7.95;;
64738;SDS011;51175;51.186;0.276;2022-08-03T01:51:38;11.30;;;9.02;;
64738;SDS011;51175;51.186;0.276;2022-08-03T01:52:11;15.35;;;8.80;;
64738;SDS011;51175;51.186;0.276;2022-08-03T01:52:46;13.07;;;9.82;;
64738;SDS011;51175;51.186;0.276;2022-08-03T01:53:17;12.43;;;8.85;;
64738;SDS011;51175;51.186;0.276;2022-08-03T01:53:49;14.23;;;8.65;;
64738;SDS011;51175;51.186;0.276;2022-08-03T01:54:23;14.52;;;9.02;;
64738;SDS011;51175;51.186;0.276;2022-08-03T01:54:55;11.90;;;8.48;;
64738;SDS011;51175;51.186;0.276;2022-08-03T01:55:28;12.18;;;8.77;;
64738;SDS011;51175;51.186;0.276;2022-08-03T01:56:01;12.02;;;8.73;;
64738;SDS011;51175;51.186;0.276;2022-08-03T01:56:35;12.68;;;8.60;;
64738;SDS011;51175;51.186;0.276;2022-08-03T01:57:07;13.18;;;8.43;;
64738;SDS011;51175;51.186;0.276;2022-08-03T01:57:39;12.60;;;8.80;;
64738;SDS011;51175;51.186;0.276;2022-08-03T01:58:14;11.90;;;9.05;;
64738;SDS011;51175;51.186;0.276;2022-08-03T01:58:45;12.43;;;8.02;;
64738;SDS011;51175;51.186;0.276;2022-08-03T01:59:19;10.65;;;7.80;;
64738;SDS011;51175;51.186;0.276;2022-08-03T01:59:52;11.45;;;8.07;;
64738;SDS011;51175;51.186;0.276;2022-08-03T02:00:25;11.40;;;8.05;;
64738;SDS011;51175;51.186;0.276;2022-08-03T02:00:56;12.52;;;8.75;;
64738;SDS011;51175;51.186;0.276;2022-08-03T02:01:30;10.98;;;8.18;;
64738;SDS011;51175;51.186;0.276;2022-08-03T02:02:02;13.85;;;8.68;;
64738;SDS011;51175;51.186;0.276;2022-08-03T02:02:34;13.38;;;8.55;;
64738;SDS011;51175;51.186;0.276;2022-08-03T02:03:06;12.30;;;8.18;;
64738;SDS011;51175;51.186;0.276;2022-08-03T02:03:37;11.70;;;7.75;;
64738;SDS011;51175;51.186;0.276;2022-08-03T02:04:11;10.55;;;7.90;;
64738;SDS011;51175;51.186;0.276;2022-08-03T02:04:44;11.32;;;8.05;;
64738;SDS011;51175;51.186;0.276;2022-08-03T02:05:16;14.13;;;8.13;;
64738;SDS011;51175;51.186;0.276;2022-08-03T02:05:48;9.35;;;7.70;;
64738;SDS011;51175;51.186;0.276;2022-08-03T02:06:21;9.30;;;7.25;;
64738;SDS011;51175;51.186;0.276;2022-08-03T02:06:53;10.73;;;7.75;;
64738;SDS011;51175;51.186;0.276;2022-08-03T02:07:24;11.90;;;8.13;;
64738;SDS011;51175;51.186;0.276;2022-08-03T02:07:56;10.77;;;7.32;;
64738;SDS011;51175;51.186;0.276;2022-08-03T02:08:27;13.50;;;8.70;;
64738;SDS011;51175;51.186;0.276;2022-08-03T02:09:00;12.05;;;7.63;;
64738;SDS011;51175;51.186;0.276;2022-08-03T02:09:31;10.70;;;7.93;;
64738;SDS011;51175;51.186;0.276;2022-08-03T02:10:06;9.82;;;7.78;;
64738;SDS011;51175;51.186;0.276;2022-08-03T02:10:38;10.63;;;8.45;;
64738;SDS011;51175;51.186;0.276;2022-08-03T02:11:11;11.45;;;7.47;;
64738;SDS011;51175;51.186;0.276;2022-08-03T02:11:42;11.85;;;8.00;;
64738;SDS011;51175;51.186;0.276;2022-08-03T02:12:14;12.07;;;7.30;;
64738;SDS011;51175;51.186;0.276;2022-08-03T02:12:45;7.93;;;6.57;;
64738;SDS011;51175;51.186;0.276;2022-08-03T02:13:18;10.75;;;6.60;;
64738;SDS011;51175;51.186;0.276;2022-08-03T02:13:50;11.10;;;7.53;;
64738;SDS011;51175;51.186;0.276;2022-08-03T02:14:22;11.35;;;6.93;;
64738;SDS011;51175;51.186;0.276;2022-08-03T02:14:53;14.10;;;7.60;;
64738;SDS011;51175;51.186;0.276;2022-08-03T02:15:25;9.60;;;6.55;;
64738;SDS011;51175;51.186;0.276;2022-08-03T02:15:57;8.93;;;6.45;;
64738;SDS011;51175;51.186;0.276;2022-08-03T02:16:28;10.95;;;7.13;;
64738;SDS011;51175;51.186;0.276;2022-08-03T02:17:01;11.43;;;7.45;;
64738;SDS011;51175;51.186;0.276;2022-08-03T02:17:33;9.95;;;7.75;;
64738;SDS011;51175;51.186;0.276;2022-08-03T02:18:05;9.75;;;7.13;;
64738;SDS011;51175;51.186;0.276;2022-08-03T02:18:39;12.38;;;7.38;;
64738;SDS011;51175;51.186;0.276;2022-08-03T02:19:11;10.77;;;7.35;;
64738;SDS011;51175;51.186;0.276;2022-08-03T02:19:42;12.20;;;6.88;;
64738;SDS011;51175;51.186;0.276;2022-08-03T02:20:14;10.02;;;7.45;;
64738;SDS011;51175;51.186;0.276;2022-08-03T02:20:45;12.68;;;7.45;;
64738;SDS011;51175;51.186;0.276;2022-08-03T02:21:17;10.77;;;6.95;;
64738;SDS011;51175;51.186;0.276;2022-08-03T02:21:47;8.93;;;6.53;;
64738;SDS011;51175;51.186;0.276;2022-08-03T02:22:20;10.18;;;7.07;;
64738;SDS011;51175;51.186;0.276;2022-08-03T02:22:53;10.18;;;7.78;;
64738;SDS011;51175;51.186;0.276;2022-08-03T02:23:24;10.48;;;6.78;;
64738;SDS011;51175;51.186;0.276;2022-08-03T02:23:54;8.20;;;6.45;;
64738;SDS011;51175;51.186;0.276;2022-08-03T02:24:25;12.02;;;7.60;;
64738;SDS011;51175;51.186;0.276;2022-08-03T02:24:55;10.50;;;6.63;;
64738;SDS011;51175;51.186;0.276;2022-08-03T02:25:26;11.07;;;7.00;;
64738;SDS011;51175;51.186;0.276;2022-08-03T02:25:59;10.75;;;7.03;;
64738;SDS011;51175;51.186;0.276;2022-08-03T02:26:33;10.68;;;6.57;;
64738;SDS011;51175;51.186;0.276;2022-08-03T02:27:17;9.40;;;6.07;;
64738;SDS011;51175;51.186;0.276;2022-08-03T02:27:51;11.50;;;7.03;;
64738;SDS011;51175;51.186;0.276;2022-08-03T02:28:27;9.30;;;7.00;;
64738;SDS011;51175;51.186;0.276;2022-08-03T02:29:02;10.85;;;7.95;;
64738;SDS011;51175;51.186;0.276;2022-08-03T02:29:41;8.77;;;7.88;;
64738;SDS011;51175;51.186;0.276;2022-08-03T02:30:15;9.00;;;6.40;;
64738;SDS011;51175;51.186;0.276;2022-08-03T02:30:49;10.35;;;7.00;;
64738;SDS011;51175;51.186;0.276;2022-08-03T02:31:24;11.75;;;6.18;;
64738;SDS011;51175;51.186;0.276;2022-08-03T02:31:57;10.13;;;6.45;;
64738;SDS011;51175;51.186;0.276;2022-08-03T02:32:31;10.35;;;6.75;;
64738;SDS011;51175;51.186;0.276;2022-08-03T02:33:13;8.85;;;6.15;;
64738;SDS011;51175;51.186;0.276;2022-08-03T02:33:52;10.57;;;6.80;;
64738;SDS011;51175;51.186;0.276;2022-08-03T02:34:27;9.02;;;6.07;;
64738;SDS011;51175;51.186;0.276;2022-08-03T02:34:59;9.98;;;6.95;;
64738;SDS011;51175;51.186;0.276;2022-08-03T02:35:31;10.07;;;6.22;;
64738;SDS011;51175;51.186;0.276;2022-08-03T02:36:04;10.88;;;6.50;;
64738;SDS011;51175;51.186;0.276;2022-08-03T02:36:38;8.73;;;6.03;;
64738;SDS011;51175;51.186;0.276;2022-08-03T02:37:10;10.80;;;5.80;;
64738;SDS011;51175;51.186;0.276;2022-08-03T02:37:46;10.88;;;6.35;;
64738;SDS011;51175;51.186;0.276;2022-08-03T02:38:22;12.77;;;7.20;;
64738;SDS011;51175;51.186;0.276;2022-08-03T02:38:58;9.60;;;6.10;;
64738;SDS011;51175;51.186;0.276;2022-08-03T02:39:30;8.85;;;6.20;;
64738;SDS011;51175;51.186;0.276;2022-08-03T02:40:03;7.68;;;5.32;;
64738;SDS011;51175;51.186;0.276;2022-08-03T02:40:36;8.52;;;6.45;;
64738;SDS011;51175;51.186;0.276;2022-08-03T02:41:14;9.10;;;6.38;;
64738;SDS011;51175;51.186;0.276;2022-08-03T02:41:48;6.78;;;5.78;;
64738;SDS011;51175;51.186;0.276;2022-08-03T02:42:20;11.32;;;5.57;;
64738;SDS011;51175;51.186;0.276;2022-08-03T02:42:54;10.18;;;6.63;;
64738;SDS011;51175;51.186;0.276;2022-08-03T02:43:29;8.95;;;5.97;;
64738;SDS011;51175;51.186;0.276;2022-08-03T02:44:01;8.25;;;5.88;;
64738;SDS011;51175;51.186;0.276;2022-08-03T02:44:36;9.20;;;5.47;;
64738;SDS011;51175;51.186;0.276;2022-08-03T02:45:08;9.60;;;5.78;;
64738;SDS011;51175;51.186;0.276;2022-08-03T02:45:43;9.35;;;6.45;;
64738;SDS011;51175;51.186;0.276;2022-08-03T02:46:17;10.18;;;6.70;;
64738;SDS011;51175;51.186;0.276;2022-08-03T02:46:49;8.00;;;5.85;;
64738;SDS011;51175;51.186;0.276;2022-08-03T02:47:25;10.45;;;5.68;;
64738;SDS011;51175;51.186;0.276;2022-08-03T02:47:59;10.07;;;5.57;;
64738;SDS011;51175;51.186;0.276;2022-08-03T02:48:31;9.23;;;5.72;;
64738;SDS011;51175;51.186;0.276;2022-08-03T02:49:06;8.90;;;5.65;;
64738;SDS011;51175;51.186;0.276;2022-08-03T02:49:38;10.75;;;5.22;;
64738;SDS011;51175;51.186;0.276;2022-08-03T02:50:11;8.73;;;5.82;;
64738;SDS011;51175;51.186;0.276;2022-08-03T02:50:43;9.55;;;5.72;;
64738;SDS011;51175;51.186;0.276;2022-08-03T02:51:15;6.82;;;5.07;;
64738;SDS011;51175;51.186;0.276;2022-08-03T02:51:47;8.73;;;5.55;;
64738;SDS011;51175;51.186;0.276;2022-08-03T02:52:22;7.22;;;5.47;;
64738;SDS011;51175;51.186;0.276;2022-08-03T02:52:54;9.68;;;6.63;;
64738;SDS011;51175;51.186;0.276;2022-08-03T02:53:26;8.50;;;5.82;;
64738;SDS011;51175;51.186;0.276;2022-08-03T02:53:58;7.75;;;5.03;;
64738;SDS011;51175;51.186;0.276;2022-08-03T02:54:31;10.63;;;6.85;;
64738;SDS011;51175;51.186;0.276;2022-08-03T02:55:03;8.43;;;5.15;;
64738;SDS011;51175;51.186;0.276;2022-08-03T02:55:35;8.70;;;5.95;;
64738;SDS011;51175;51.186;0.276;2022-08-03T02:56:07;11.45;;;5.93;;
64738;SDS011;51175;51.186;0.276;2022-08-03T02:56:38;7.75;;;5.40;;
64738;SDS011;51175;51.186;0.276;2022-08-03T02:57:11;10.85;;;6.32;;
64738;SDS011;51175;51.186;0.276;2022-08-03T02:57:44;7.07;;;5.03;;
64738;SDS011;51175;51.186;0.276;2022-08-03T02:58:17;7.43;;;5.25;;
64738;SDS011;51175;51.186;0.276;2022-08-03T02:58:51;7.35;;;5.25;;
64738;SDS011;51175;51.186;0.276;2022-08-03T02:59:23;8.07;;;5.13;;
64738;SDS011;51175;51.186;0.276;2022-08-03T02:59:56;10.68;;;5.32;;
64738;SDS011;51175;51.186;0.276;2022-08-03T03:00:29;7.15;;;4.95;;
64738;SDS011;51175;51.186;0.276;2022-08-03T03:01:02;8.15;;;5.05;;
64738;SDS011;51175;51.186;0.276;2022-08-03T03:01:32;6.72;;;5.13;;
64738;SDS011;51175;51.186;0.276;2022-08-03T03:02:03;8.50;;;4.80;;
64738;SDS011;51175;51.186;0.276;2022-08-03T03:02:33;6.97;;;5.18;;
64738;SDS011;51175;51.186;0.276;2022-08-03T03:03:05;7.22;;;5.10;;
64738;SDS011;51175;51.186;0.276;2022-08-03T03:03:37;10.35;;;5.03;;
64738;SDS011;51175;51.186;0.276;2022-08-03T03:04:09;7.93;;;5.20;;
64738;SDS011;51175;51.186;0.276;2022-08-03T03:04:41;7.32;;;4.97;;
64738;SDS011;51175;51.186;0.276;2022-08-03T03:05:12;9.00;;;5.25;;
64738;SDS011;51175;51.186;0.276;2022-08-03T03:05:44;7.07;;;4.60;;
64738;SDS011;51175;51.186;0.276;2022-08-03T03:06:15;9.13;;;5.03;;
64738;SDS011;51175;51.186;0.276;2022-08-03T03:06:48;10.77;;;5.78;;
64738;SDS011;51175;51.186;0.276;2022-08-03T03:07:20;7.38;;;4.78;;
64738;SDS011;51175;51.186;0.276;2022-08-03T03:07:51;7.95;;;5.25;;
64738;SDS011;51175;51.186;0.276;2022-08-03T03:08:23;6.68;;;4.97;;
64738;SDS011;51175;51.186;0.276;2022-08-03T03:08:55;9.25;;;5.10;;
64738;SDS011;51175;51.186;0.276;2022-08-03T03:09:26;6.30;;;4.55;;
64738;SDS011;51175;51.186;0.276;2022-08-03T03:09:57;7.53;;;5.20;;
64738;SDS011;51175;51.186;0.276;2022-08-03T03:10:29;7.45;;;5.20;;
64738;SDS011;51175;51.186;0.276;2022-08-03T03:11:00;7.32;;;4.80;;
64738;SDS011;51175;51.186;0.276;2022-08-03T03:11:31;9.57;;;5.05;;
64738;SDS011;51175;51.186;0.276;2022-08-03T03:12:01;7.45;;;5.03;;
64738;SDS011;51175;51.186;0.276;2022-08-03T03:12:33;9.07;;;6.22;;
64738;SDS011;51175;51.186;0.276;2022-08-03T03:13:06;8.60;;;4.95;;
64738;SDS011;51175;51.186;0.276;2022-08-03T03:13:37;8.30;;;5.13;;
64738;SDS011;51175;51.186;0.276;2022-08-03T03:14:10;8.52;;;4.75;;
64738;SDS011;51175;51.186;0.276;2022-08-03T03:14:42;6.93;;;5.13;;
64738;SDS011;51175;51.186;0.276;2022-08-03T03:15:12;7.75;;;4.55;;
64738;SDS011;51175;51.186;0.276;2022-08-03T03:15:43;9.43;;;4.28;;
64738;SDS011;51175;51.186;0.276;2022-08-03T03:16:14;8.75;;;5.22;;
64738;SDS011;51175;51.186;0.276;2022-08-03T03:16:45;9.18;;;4.30;;
64738;SDS011;51175;51.186;0.276;2022-08-03T03:17:17;10.43;;;4.55;;
64738;SDS011;51175;51.186;0.276;2022-08-03T03:17:49;8.27;;;5.03;;
64738;SDS011;51175;51.186;0.276;2022-08-03T03:18:21;10.23;;;5.07;;
64738;SDS011;51175;51.186;0.276;2022-08-03T03:18:52;7.13;;;4.22;;
64738;SDS011;51175;51.186;0.276;2022-08-03T03:19:23;8.48;;;5.32;;
64738;SDS011;51175;51.186;0.276;2022-08-03T03:19:54;7.32;;;4.57;;
64738;SDS011;51175;51.186;0.276;2022-08-03T03:20:25;9.30;;;5.10;;
64738;SDS011;51175;51.186;0.276;2022-08-03T03:20:58;8.68;;;5.03;;
64738;SDS011;51175;51.186;0.276;2022-08-03T03:21:30;8.48;;;4.32;;
64738;SDS011;51175;51.186;0.276;2022-08-03T03:22:02;8.13;;;5.28;;
64738;SDS011;51175;51.186;0.276;2022-08-03T03:22:35;8.75;;;4.93;;
64738;SDS011;51175;51.186;0.276;2022-08-03T03:23:09;8.25;;;4.57;;
64738;SDS011;51175;51.186;0.276;2022-08-03T03:23:40;8.60;;;4.72;;
64738;SDS011;51175;51.186;0.276;2022-08-03T03:24:11;8.20;;;4.65;;
64738;SDS011;51175;51.186;0.276;2022-08-03T03:24:41;9.85;;;4.85;;
64738;SDS011;51175;51.186;0.276;2022-08-03T03:25:13;9.75;;;4.63;;
64738;SDS011;51175;51.186;0.276;2022-08-03T03:25:44;8.82;;;4.63;;